sensor_id;sensor_type;location;lat;lon;timestamp;P1;durP1;ratioP1;P2;durP2;ratioP2
20462;SDS011;10390;53.566;9.980;2023-07-13T00:00:00;9.57;;;8.75;;
20462;SDS011;10390;53.566;9.980;2023-07-13T00:02:29;8.77;;;7.88;;
20462;SDS011;10390;53.566;9.980;2023-07-13T00:04:54;9.40;;;8.50;;
20462;SDS011;10390;53.566;9.980;2023-07-13T00:07:20;9.55;;;8.65;;
20462;SDS011;10390;53.566;9.980;2023-07-13T00:09:46;9.48;;;8.57;;
20462;SDS011;10390;53.566;9.980;2023-07-13T00:12:29;9.60;;;8.70;;
20462;SDS011;10390;53.566;9.980;2023-07-13T00:14:57;9.77;;;8.88;;
20462;SDS011;10390;53.566;9.980;2023-07-13T00:17:25;8.80;;;8.00;;
20462;SDS011;10390;53.566;9.980;2023-07-13T00:19:52;9.30;;;8.43;;
20462;SDS011;10390;53.566;9.980;2023-07-13T00:22:18;9.10;;;8.23;;
20462;SDS011;10390;53.566;9.980;2023-07-13T00:24:44;9.07;;;8.25;;
20462;SDS011;10390;53.566;9.980;2023-07-13T00:27:10;9.90;;;9.00;;
20462;SDS011;10390;53.566;9.980;2023-07-13T00:29:36;9.73;;;8.82;;
20462;SDS011;10390;53.566;9.980;2023-07-13T00:32:03;9.52;;;8.57;;
20462;SDS011;10390;53.566;9.980;2023-07-13T00:34:29;9.35;;;8.48;;
20462;SDS011;10390;53.566;9.980;2023-07-13T00:36:55;9.15;;;8.23;;
20462;SDS011;10390;53.566;9.980;2023-07-13T00:39:21;9.77;;;8.88;;
20462;SDS011;10390;53.566;9.980;2023-07-13T00:41:47;9.18;;;8.30;;
20462;SDS011;10390;53.566;9.980;2023-07-13T00:44:14;8.63;;;7.82;;
20462;SDS011;10390;53.566;9.980;2023-07-13T00:46:40;9.18;;;8.32;;
20462;SDS011;10390;53.566;9.980;2023-07-13T00:49:08;9.45;;;8.65;;
20462;SDS011;10390;53.566;9.980;2023-07-13T00:51:41;9.15;;;8.35;;
20462;SDS011;10390;53.566;9.980;2023-07-13T00:54:15;8.63;;;7.93;;
20462;SDS011;10390;53.566;9.980;2023-07-13T00:56:47;8.98;;;8.18;;
20462;SDS011;10390;53.566;9.980;2023-07-13T00:59:15;9.05;;;8.25;;
20462;SDS011;10390;53.566;9.980;2023-07-13T01:01:42;9.18;;;8.38;;
20462;SDS011;10390;53.566;9.980;2023-07-13T01:04:08;8.77;;;7.97;;
20462;SDS011;10390;53.566;9.980;2023-07-13T01:06:35;9.02;;;8.23;;
20462;SDS011;10390;53.566;9.980;2023-07-13T01:09:02;8.35;;;7.60;;
20462;SDS011;10390;53.566;9.980;2023-07-13T01:11:29;8.95;;;8.15;;
20462;SDS011;10390;53.566;9.980;2023-07-13T01:13:54;8.48;;;7.68;;
20462;SDS011;10390;53.566;9.980;2023-07-13T01:16:27;9.27;;;8.48;;
20462;SDS011;10390;53.566;9.980;2023-07-13T01:18:54;8.93;;;8.13;;
20462;SDS011;10390;53.566;9.980;2023-07-13T01:21:23;9.30;;;8.50;;
20462;SDS011;10390;53.566;9.980;2023-07-13T01:23:50;8.43;;;7.72;;
20462;SDS011;10390;53.566;9.980;2023-07-13T01:26:16;8.93;;;8.20;;
20462;SDS011;10390;53.566;9.980;2023-07-13T01:28:42;9.07;;;8.20;;
20462;SDS011;10390;53.566;9.980;2023-07-13T01:31:08;8.25;;;7.55;;
20462;SDS011;10390;53.566;9.980;2023-07-13T01:33:36;8.45;;;7.68;;
20462;SDS011;10390;53.566;9.980;2023-07-13T01:36:04;7.95;;;7.25;;
20462;SDS011;10390;53.566;9.980;2023-07-13T01:38:30;8.20;;;7.40;;
20462;SDS011;10390;53.566;9.980;2023-07-13T01:40:56;7.63;;;6.88;;
20462;SDS011;10390;53.566;9.980;2023-07-13T01:43:22;7.85;;;7.15;;
20462;SDS011;10390;53.566;9.980;2023-07-13T01:45:47;7.63;;;7.00;;
20462;SDS011;10390;53.566;9.980;2023-07-13T01:48:13;7.97;;;7.28;;
20462;SDS011;10390;53.566;9.980;2023-07-13T01:50:39;8.40;;;7.70;;
20462;SDS011;10390;53.566;9.980;2023-07-13T01:53:05;7.50;;;6.80;;
20462;SDS011;10390;53.566;9.980;2023-07-13T01:55:31;8.00;;;7.30;;
20462;SDS011;10390;53.566;9.980;2023-07-13T01:57:57;7.88;;;7.18;;
20462;SDS011;10390;53.566;9.980;2023-07-13T02:00:23;8.48;;;7.57;;
20462;SDS011;10390;53.566;9.980;2023-07-13T02:02:49;7.82;;;7.13;;
20462;SDS011;10390;53.566;9.980;2023-07-13T02:05:15;7.88;;;7.18;;
20462;SDS011;10390;53.566;9.980;2023-07-13T02:07:41;7.70;;;7.00;;
20462;SDS011;10390;53.566;9.980;2023-07-13T02:10:07;8.40;;;7.60;;
20462;SDS011;10390;53.566;9.980;2023-07-13T02:12:34;8.13;;;7.43;;
20462;SDS011;10390;53.566;9.980;2023-07-13T02:15:00;7.50;;;6.85;;
20462;SDS011;10390;53.566;9.980;2023-07-13T02:17:26;8.20;;;7.40;;
20462;SDS011;10390;53.566;9.980;2023-07-13T02:19:52;7.78;;;6.97;;
20462;SDS011;10390;53.566;9.980;2023-07-13T02:22:18;7.55;;;6.85;;
20462;SDS011;10390;53.566;9.980;2023-07-13T02:24:43;7.22;;;6.63;;
20462;SDS011;10390;53.566;9.980;2023-07-13T02:27:09;7.25;;;6.63;;
20462;SDS011;10390;53.566;9.980;2023-07-13T02:29:35;7.45;;;6.75;;
20462;SDS011;10390;53.566;9.980;2023-07-13T02:32:00;7.80;;;7.10;;
20462;SDS011;10390;53.566;9.980;2023-07-13T02:34:26;7.95;;;7.22;;
20462;SDS011;10390;53.566;9.980;2023-07-13T02:36:51;7.20;;;6.60;;
20462;SDS011;10390;53.566;9.980;2023-07-13T02:39:17;7.10;;;6.50;;
20462;SDS011;10390;53.566;9.980;2023-07-13T02:41:43;7.05;;;6.45;;
20462;SDS011;10390;53.566;9.980;2023-07-13T02:44:08;6.75;;;6.15;;
20462;SDS011;10390;53.566;9.980;2023-07-13T02:46:35;7.03;;;6.35;;
20462;SDS011;10390;53.566;9.980;2023-07-13T02:49:02;6.43;;;5.82;;
20462;SDS011;10390;53.566;9.980;2023-07-13T02:51:28;7.20;;;6.53;;
20462;SDS011;10390;53.566;9.980;2023-07-13T02:53:54;6.35;;;5.80;;
20462;SDS011;10390;53.566;9.980;2023-07-13T02:56:21;6.60;;;6.00;;
20462;SDS011;10390;53.566;9.980;2023-07-13T02:58:48;6.80;;;6.20;;
20462;SDS011;10390;53.566;9.980;2023-07-13T03:01:14;6.70;;;6.10;;
20462;SDS011;10390;53.566;9.980;2023-07-13T03:03:44;6.20;;;5.70;;
20462;SDS011;10390;53.566;9.980;2023-07-13T03:06:11;6.57;;;5.97;;
20462;SDS011;10390;53.566;9.980;2023-07-13T03:08:37;6.90;;;6.20;;
20462;SDS011;10390;53.566;9.980;2023-07-13T03:11:10;7.20;;;6.60;;
20462;SDS011;10390;53.566;9.980;2023-07-13T03:13:40;6.95;;;6.35;;
20462;SDS011;10390;53.566;9.980;2023-07-13T03:16:07;6.95;;;6.35;;
20462;SDS011;10390;53.566;9.980;2023-07-13T03:18:33;7.00;;;6.13;;
20462;SDS011;10390;53.566;9.980;2023-07-13T03:21:01;6.30;;;5.80;;
20462;SDS011;10390;53.566;9.980;2023-07-13T03:23:26;6.53;;;5.93;;
20462;SDS011;10390;53.566;9.980;2023-07-13T03:26:09;6.10;;;5.50;;
20462;SDS011;10390;53.566;9.980;2023-07-13T03:28:38;6.47;;;5.88;;
20462;SDS011;10390;53.566;9.980;2023-07-13T03:31:05;6.93;;;6.22;;
20462;SDS011;10390;53.566;9.980;2023-07-13T03:33:33;6.90;;;6.30;;
20462;SDS011;10390;53.566;9.980;2023-07-13T03:35:59;5.80;;;5.30;;
20462;SDS011;10390;53.566;9.980;2023-07-13T03:38:25;6.10;;;5.50;;
20462;SDS011;10390;53.566;9.980;2023-07-13T03:40:51;6.72;;;6.13;;
20462;SDS011;10390;53.566;9.980;2023-07-13T03:43:17;6.80;;;6.20;;
20462;SDS011;10390;53.566;9.980;2023-07-13T03:45:42;6.40;;;5.82;;
20462;SDS011;10390;53.566;9.980;2023-07-13T03:48:08;6.45;;;5.95;;
20462;SDS011;10390;53.566;9.980;2023-07-13T03:50:34;5.75;;;5.25;;
20462;SDS011;10390;53.566;9.980;2023-07-13T03:53:00;6.57;;;5.97;;
20462;SDS011;10390;53.566;9.980;2023-07-13T03:55:26;5.78;;;5.28;;
20462;SDS011;10390;53.566;9.980;2023-07-13T03:57:53;6.35;;;5.80;;
20462;SDS011;10390;53.566;9.980;2023-07-13T04:00:23;6.45;;;5.95;;
20462;SDS011;10390;53.566;9.980;2023-07-13T04:02:49;6.35;;;5.85;;
20462;SDS011;10390;53.566;9.980;2023-07-13T04:05:15;5.95;;;5.45;;
20462;SDS011;10390;53.566;9.980;2023-07-13T04:07:40;6.47;;;5.88;;
20462;SDS011;10390;53.566;9.980;2023-07-13T04:10:06;6.53;;;5.95;;
20462;SDS011;10390;53.566;9.980;2023-07-13T04:12:32;6.45;;;5.85;;
20462;SDS011;10390;53.566;9.980;2023-07-13T04:14:58;6.05;;;5.50;;
20462;SDS011;10390;53.566;9.980;2023-07-13T04:17:23;6.28;;;5.68;;
20462;SDS011;10390;53.566;9.980;2023-07-13T04:19:49;5.93;;;5.43;;
20462;SDS011;10390;53.566;9.980;2023-07-13T04:22:15;6.43;;;5.80;;
20462;SDS011;10390;53.566;9.980;2023-07-13T04:24:40;5.93;;;5.35;;
20462;SDS011;10390;53.566;9.980;2023-07-13T04:27:06;5.82;;;5.32;;
20462;SDS011;10390;53.566;9.980;2023-07-13T04:29:32;5.80;;;5.30;;
20462;SDS011;10390;53.566;9.980;2023-07-13T04:31:57;6.60;;;6.00;;
20462;SDS011;10390;53.566;9.980;2023-07-13T04:34:23;5.88;;;5.28;;
20462;SDS011;10390;53.566;9.980;2023-07-13T04:36:49;6.18;;;5.50;;
20462;SDS011;10390;53.566;9.980;2023-07-13T04:39:15;5.95;;;5.38;;
20462;SDS011;10390;53.566;9.980;2023-07-13T04:41:41;5.70;;;5.20;;
20462;SDS011;10390;53.566;9.980;2023-07-13T04:44:06;5.82;;;5.22;;
20462;SDS011;10390;53.566;9.980;2023-07-13T04:46:32;5.97;;;5.47;;
20462;SDS011;10390;53.566;9.980;2023-07-13T04:48:58;6.25;;;5.75;;
20462;SDS011;10390;53.566;9.980;2023-07-13T04:51:23;6.13;;;5.63;;
20462;SDS011;10390;53.566;9.980;2023-07-13T04:53:49;6.18;;;5.65;;
20462;SDS011;10390;53.566;9.980;2023-07-13T04:56:15;5.70;;;5.20;;
20462;SDS011;10390;53.566;9.980;2023-07-13T04:58:41;6.28;;;5.78;;
20462;SDS011;10390;53.566;9.980;2023-07-13T05:01:06;5.95;;;5.45;;
20462;SDS011;10390;53.566;9.980;2023-07-13T05:03:33;6.00;;;5.40;;
20462;SDS011;10390;53.566;9.980;2023-07-13T05:06:00;6.03;;;5.43;;
20462;SDS011;10390;53.566;9.980;2023-07-13T05:08:29;5.68;;;5.18;;
20462;SDS011;10390;53.566;9.980;2023-07-13T05:10:54;6.40;;;5.80;;
20462;SDS011;10390;53.566;9.980;2023-07-13T05:13:20;5.78;;;5.28;;
20462;SDS011;10390;53.566;9.980;2023-07-13T05:18:41;5.57;;;5.03;;
20462;SDS011;10390;53.566;9.980;2023-07-13T05:21:08;5.85;;;4.95;;
20462;SDS011;10390;53.566;9.980;2023-07-13T05:23:35;5.65;;;5.10;;
20462;SDS011;10390;53.566;9.980;2023-07-13T05:26:01;5.43;;;4.90;;
20462;SDS011;10390;53.566;9.980;2023-07-13T05:28:28;5.72;;;5.18;;
20462;SDS011;10390;53.566;9.980;2023-07-13T05:30:55;6.07;;;5.47;;
20462;SDS011;10390;53.566;9.980;2023-07-13T05:33:21;5.78;;;5.28;;
20462;SDS011;10390;53.566;9.980;2023-07-13T05:35:46;5.35;;;4.85;;
20462;SDS011;10390;53.566;9.980;2023-07-13T05:38:12;5.85;;;5.35;;
20462;SDS011;10390;53.566;9.980;2023-07-13T05:40:38;6.07;;;5.57;;
20462;SDS011;10390;53.566;9.980;2023-07-13T05:43:04;6.15;;;5.65;;
20462;SDS011;10390;53.566;9.980;2023-07-13T05:45:29;5.85;;;5.25;;
20462;SDS011;10390;53.566;9.980;2023-07-13T05:47:55;5.72;;;5.22;;
20462;SDS011;10390;53.566;9.980;2023-07-13T05:50:21;5.80;;;5.15;;
20462;SDS011;10390;53.566;9.980;2023-07-13T05:52:46;5.70;;;5.07;;
20462;SDS011;10390;53.566;9.980;2023-07-13T05:55:12;6.50;;;5.22;;
20462;SDS011;10390;53.566;9.980;2023-07-13T05:57:38;5.70;;;5.20;;
20462;SDS011;10390;53.566;9.980;2023-07-13T06:00:04;5.45;;;4.68;;
20462;SDS011;10390;53.566;9.980;2023-07-13T06:02:30;5.72;;;5.03;;
20462;SDS011;10390;53.566;9.980;2023-07-13T06:04:56;6.00;;;5.40;;
20462;SDS011;10390;53.566;9.980;2023-07-13T06:07:21;7.32;;;5.40;;
20462;SDS011;10390;53.566;9.980;2023-07-13T06:09:47;5.50;;;5.00;;
20462;SDS011;10390;53.566;9.980;2023-07-13T06:12:12;6.00;;;5.30;;
20462;SDS011;10390;53.566;9.980;2023-07-13T06:14:39;6.20;;;5.38;;
20462;SDS011;10390;53.566;9.980;2023-07-13T06:17:05;5.88;;;5.28;;
20462;SDS011;10390;53.566;9.980;2023-07-13T06:19:31;5.22;;;4.72;;
20462;SDS011;10390;53.566;9.980;2023-07-13T06:21:56;5.55;;;5.00;;
20462;SDS011;10390;53.566;9.980;2023-07-13T06:24:23;6.10;;;5.07;;
20462;SDS011;10390;53.566;9.980;2023-07-13T06:26:49;5.70;;;5.13;;
20462;SDS011;10390;53.566;9.980;2023-07-13T06:29:15;6.25;;;5.70;;
20462;SDS011;10390;53.566;9.980;2023-07-13T06:31:41;5.85;;;5.25;;
20462;SDS011;10390;53.566;9.980;2023-07-13T06:34:07;6.68;;;6.07;;
20462;SDS011;10390;53.566;9.980;2023-07-13T06:36:33;5.55;;;4.93;;
20462;SDS011;10390;53.566;9.980;2023-07-13T06:38:58;6.15;;;5.55;;
20462;SDS011;10390;53.566;9.980;2023-07-13T06:41:24;5.55;;;5.05;;
20462;SDS011;10390;53.566;9.980;2023-07-13T06:43:53;5.50;;;5.00;;
20462;SDS011;10390;53.566;9.980;2023-07-13T06:46:20;5.70;;;4.93;;
20462;SDS011;10390;53.566;9.980;2023-07-13T06:48:46;7.03;;;5.22;;
20462;SDS011;10390;53.566;9.980;2023-07-13T06:51:12;6.25;;;5.30;;
20462;SDS011;10390;53.566;9.980;2023-07-13T06:53:37;6.22;;;5.30;;
20462;SDS011;10390;53.566;9.980;2023-07-13T06:56:03;5.40;;;4.70;;
20462;SDS011;10390;53.566;9.980;2023-07-13T06:58:29;6.63;;;4.80;;
20462;SDS011;10390;53.566;9.980;2023-07-13T07:00:54;5.85;;;5.00;;
20462;SDS011;10390;53.566;9.980;2023-07-13T07:03:20;5.60;;;5.00;;
20462;SDS011;10390;53.566;9.980;2023-07-13T07:05:46;5.95;;;5.35;;
20462;SDS011;10390;53.566;9.980;2023-07-13T07:08:11;7.05;;;4.93;;
20462;SDS011;10390;53.566;9.980;2023-07-13T07:10:37;5.78;;;4.90;;
20462;SDS011;10390;53.566;9.980;2023-07-13T07:13:03;5.45;;;4.95;;
20462;SDS011;10390;53.566;9.980;2023-07-13T07:15:29;8.25;;;5.82;;
20462;SDS011;10390;53.566;9.980;2023-07-13T07:17:55;5.53;;;5.03;;
20462;SDS011;10390;53.566;9.980;2023-07-13T07:20:20;5.55;;;5.05;;
20462;SDS011;10390;53.566;9.980;2023-07-13T07:22:47;7.40;;;5.68;;
20462;SDS011;10390;53.566;9.980;2023-07-13T07:25:13;6.05;;;5.45;;
20462;SDS011;10390;53.566;9.980;2023-07-13T07:27:39;6.00;;;5.10;;
20462;SDS011;10390;53.566;9.980;2023-07-13T07:30:04;6.60;;;5.47;;
20462;SDS011;10390;53.566;9.980;2023-07-13T07:32:31;6.18;;;5.20;;
20462;SDS011;10390;53.566;9.980;2023-07-13T07:34:57;5.68;;;5.07;;
20462;SDS011;10390;53.566;9.980;2023-07-13T07:37:23;6.53;;;5.57;;
20462;SDS011;10390;53.566;9.980;2023-07-13T07:39:49;6.93;;;5.60;;
20462;SDS011;10390;53.566;9.980;2023-07-13T07:42:15;6.13;;;5.22;;
20462;SDS011;10390;53.566;9.980;2023-07-13T07:44:41;6.25;;;5.60;;
20462;SDS011;10390;53.566;9.980;2023-07-13T07:47:07;6.80;;;6.10;;
20462;SDS011;10390;53.566;9.980;2023-07-13T07:49:34;6.63;;;5.93;;
20462;SDS011;10390;53.566;9.980;2023-07-13T07:52:00;7.45;;;5.80;;
20462;SDS011;10390;53.566;9.980;2023-07-13T07:54:26;7.65;;;6.00;;
20462;SDS011;10390;53.566;9.980;2023-07-13T07:56:52;6.45;;;5.82;;
20462;SDS011;10390;53.566;9.980;2023-07-13T07:59:18;6.63;;;5.85;;
20462;SDS011;10390;53.566;9.980;2023-07-13T08:01:44;6.88;;;6.13;;
20462;SDS011;10390;53.566;9.980;2023-07-13T08:04:11;7.65;;;6.15;;
20462;SDS011;10390;53.566;9.980;2023-07-13T08:06:37;6.97;;;5.88;;
20462;SDS011;10390;53.566;9.980;2023-07-13T08:09:02;7.53;;;5.45;;
20462;SDS011;10390;53.566;9.980;2023-07-13T08:11:29;7.88;;;6.30;;
20462;SDS011;10390;53.566;9.980;2023-07-13T08:13:55;6.50;;;5.90;;
20462;SDS011;10390;53.566;9.980;2023-07-13T08:16:20;6.30;;;5.70;;
20462;SDS011;10390;53.566;9.980;2023-07-13T08:18:46;7.95;;;5.70;;
20462;SDS011;10390;53.566;9.980;2023-07-13T08:21:12;8.15;;;5.78;;
20462;SDS011;10390;53.566;9.980;2023-07-13T08:23:38;7.82;;;5.80;;
20462;SDS011;10390;53.566;9.980;2023-07-13T08:26:03;6.97;;;5.75;;
20462;SDS011;10390;53.566;9.980;2023-07-13T08:28:30;7.00;;;6.18;;
20462;SDS011;10390;53.566;9.980;2023-07-13T08:31:01;7.30;;;6.05;;
20462;SDS011;10390;53.566;9.980;2023-07-13T08:33:28;8.30;;;5.80;;
20462;SDS011;10390;53.566;9.980;2023-07-13T08:35:53;6.28;;;5.65;;
20462;SDS011;10390;53.566;9.980;2023-07-13T08:38:19;6.55;;;5.95;;
20462;SDS011;10390;53.566;9.980;2023-07-13T08:40:48;6.53;;;5.90;;
20462;SDS011;10390;53.566;9.980;2023-07-13T08:43:19;6.35;;;5.65;;
20462;SDS011;10390;53.566;9.980;2023-07-13T08:45:51;6.65;;;5.35;;
20462;SDS011;10390;53.566;9.980;2023-07-13T08:48:25;6.95;;;5.47;;
20462;SDS011;10390;53.566;9.980;2023-07-13T08:50:58;6.75;;;5.72;;
20462;SDS011;10390;53.566;9.980;2023-07-13T08:53:38;6.65;;;5.70;;
20462;SDS011;10390;53.566;9.980;2023-07-13T08:56:43;7.05;;;5.78;;
20462;SDS011;10390;53.566;9.980;2023-07-13T08:59:02;7.68;;;5.57;;
20462;SDS011;10390;53.566;9.980;2023-07-13T09:04:26;6.13;;;5.47;;
20462;SDS011;10390;53.566;9.980;2023-07-13T09:12:10;7.18;;;6.50;;
20462;SDS011;10390;53.566;9.980;2023-07-13T09:14:45;6.88;;;6.00;;
20462;SDS011;10390;53.566;9.980;2023-07-13T09:17:31;5.90;;;5.30;;
20462;SDS011;10390;53.566;9.980;2023-07-13T09:20:26;7.50;;;6.13;;
20462;SDS011;10390;53.566;9.980;2023-07-13T09:22:58;7.38;;;5.47;;
20462;SDS011;10390;53.566;9.980;2023-07-13T09:25:30;7.18;;;5.57;;
20462;SDS011;10390;53.566;9.980;2023-07-13T09:28:17;6.60;;;5.82;;
20462;SDS011;10390;53.566;9.980;2023-07-13T09:31:47;6.88;;;5.55;;
20462;SDS011;10390;53.566;9.980;2023-07-13T09:33:47;5.90;;;5.30;;
20462;SDS011;10390;53.566;9.980;2023-07-13T09:36:17;8.80;;;5.70;;
20462;SDS011;10390;53.566;9.980;2023-07-13T09:38:43;6.40;;;5.80;;
20462;SDS011;10390;53.566;9.980;2023-07-13T09:41:21;6.28;;;5.68;;
20462;SDS011;10390;53.566;9.980;2023-07-13T09:44:00;7.13;;;6.07;;
20462;SDS011;10390;53.566;9.980;2023-07-13T09:46:27;6.65;;;6.00;;
20462;SDS011;10390;53.566;9.980;2023-07-13T09:48:52;8.15;;;6.40;;
20462;SDS011;10390;53.566;9.980;2023-07-13T09:51:20;8.27;;;6.00;;
20462;SDS011;10390;53.566;9.980;2023-07-13T09:53:46;6.47;;;5.78;;
20462;SDS011;10390;53.566;9.980;2023-07-13T09:56:21;7.35;;;6.65;;
20462;SDS011;10390;53.566;9.980;2023-07-13T09:58:48;6.20;;;5.60;;
20462;SDS011;10390;53.566;9.980;2023-07-13T10:01:14;6.57;;;5.90;;
20462;SDS011;10390;53.566;9.980;2023-07-13T10:03:42;6.72;;;6.00;;
20462;SDS011;10390;53.566;9.980;2023-07-13T10:06:20;7.30;;;6.60;;
20462;SDS011;10390;53.566;9.980;2023-07-13T10:08:51;7.32;;;5.97;;
20462;SDS011;10390;53.566;9.980;2023-07-13T10:11:22;8.98;;;6.93;;
20462;SDS011;10390;53.566;9.980;2023-07-13T10:13:54;9.65;;;6.75;;
20462;SDS011;10390;53.566;9.980;2023-07-13T10:16:48;7.05;;;6.35;;
20462;SDS011;10390;53.566;9.980;2023-07-13T10:19:23;8.48;;;6.25;;
20462;SDS011;10390;53.566;9.980;2023-07-13T10:21:55;7.22;;;6.53;;
20462;SDS011;10390;53.566;9.980;2023-07-13T10:24:31;7.88;;;6.60;;
20462;SDS011;10390;53.566;9.980;2023-07-13T10:27:03;7.50;;;6.75;;
20462;SDS011;10390;53.566;9.980;2023-07-13T10:32:45;7.43;;;6.55;;
20462;SDS011;10390;53.566;9.980;2023-07-13T10:35:12;7.50;;;6.70;;
20462;SDS011;10390;53.566;9.980;2023-07-13T10:37:51;7.10;;;6.40;;
20462;SDS011;10390;53.566;9.980;2023-07-13T10:40:23;7.53;;;6.80;;
20462;SDS011;10390;53.566;9.980;2023-07-13T10:42:55;8.73;;;7.43;;
20462;SDS011;10390;53.566;9.980;2023-07-13T10:45:24;10.70;;;6.70;;
20462;SDS011;10390;53.566;9.980;2023-07-13T10:47:52;7.43;;;6.10;;
20462;SDS011;10390;53.566;9.980;2023-07-13T10:50:24;6.90;;;6.25;;
20462;SDS011;10390;53.566;9.980;2023-07-13T10:52:54;9.15;;;7.63;;
20462;SDS011;10390;53.566;9.980;2023-07-13T10:55:32;7.78;;;7.15;;
20462;SDS011;10390;53.566;9.980;2023-07-13T10:58:41;7.20;;;6.50;;
20462;SDS011;10390;53.566;9.980;2023-07-13T11:06:12;6.95;;;6.32;;
20462;SDS011;10390;53.566;9.980;2023-07-13T11:13:56;7.28;;;6.57;;
20462;SDS011;10390;53.566;9.980;2023-07-13T11:16:36;7.97;;;7.18;;
20462;SDS011;10390;53.566;9.980;2023-07-13T11:19:23;6.88;;;6.13;;
20462;SDS011;10390;53.566;9.980;2023-07-13T11:30:20;7.85;;;7.05;;
20462;SDS011;10390;53.566;9.980;2023-07-13T11:41:05;6.85;;;6.15;;
20462;SDS011;10390;53.566;9.980;2023-07-13T11:43:43;7.45;;;6.63;;
20462;SDS011;10390;53.566;9.980;2023-07-13T11:46:43;7.40;;;6.70;;
20462;SDS011;10390;53.566;9.980;2023-07-13T11:49:04;7.30;;;6.60;;
20462;SDS011;10390;53.566;9.980;2023-07-13T11:51:31;7.47;;;6.82;;
20462;SDS011;10390;53.566;9.980;2023-07-13T11:54:23;7.30;;;6.68;;
20462;SDS011;10390;53.566;9.980;2023-07-13T11:56:48;6.82;;;6.22;;
20462;SDS011;10390;53.566;9.980;2023-07-13T11:59:15;6.88;;;6.28;;
20462;SDS011;10390;53.566;9.980;2023-07-13T12:01:52;7.38;;;6.28;;
20462;SDS011;10390;53.566;9.980;2023-07-13T12:04:23;6.63;;;6.03;;
20462;SDS011;10390;53.566;9.980;2023-07-13T12:07:11;7.55;;;6.53;;
20462;SDS011;10390;53.566;9.980;2023-07-13T12:09:40;7.03;;;6.32;;
20462;SDS011;10390;53.566;9.980;2023-07-13T12:12:13;6.70;;;6.10;;
20462;SDS011;10390;53.566;9.980;2023-07-13T12:14:42;7.30;;;6.60;;
20462;SDS011;10390;53.566;9.980;2023-07-13T12:17:13;6.85;;;6.25;;
20462;SDS011;10390;53.566;9.980;2023-07-13T12:19:50;6.50;;;5.80;;
20462;SDS011;10390;53.566;9.980;2023-07-13T12:22:18;6.50;;;5.90;;
20462;SDS011;10390;53.566;9.980;2023-07-13T12:24:45;6.60;;;5.90;;
20462;SDS011;10390;53.566;9.980;2023-07-13T12:27:20;6.78;;;6.18;;
20462;SDS011;10390;53.566;9.980;2023-07-13T12:30:00;7.03;;;6.28;;
20462;SDS011;10390;53.566;9.980;2023-07-13T12:32:30;7.07;;;6.38;;
20462;SDS011;10390;53.566;9.980;2023-07-13T12:34:57;6.45;;;5.85;;
20462;SDS011;10390;53.566;9.980;2023-07-13T12:37:41;6.47;;;5.88;;
20462;SDS011;10390;53.566;9.980;2023-07-13T12:40:12;6.57;;;5.97;;
20462;SDS011;10390;53.566;9.980;2023-07-13T12:42:44;6.68;;;6.03;;
20462;SDS011;10390;53.566;9.980;2023-07-13T12:45:26;7.72;;;6.28;;
20462;SDS011;10390;53.566;9.980;2023-07-13T12:47:56;6.38;;;5.78;;
20462;SDS011;10390;53.566;9.980;2023-07-13T12:50:29;7.75;;;6.80;;
20462;SDS011;10390;53.566;9.980;2023-07-13T12:52:59;7.07;;;6.38;;
20462;SDS011;10390;53.566;9.980;2023-07-13T12:55:32;7.50;;;6.70;;
20462;SDS011;10390;53.566;9.980;2023-07-13T12:58:16;7.00;;;6.30;;
20462;SDS011;10390;53.566;9.980;2023-07-13T13:00:53;6.72;;;6.03;;
20462;SDS011;10390;53.566;9.980;2023-07-13T13:08:28;7.25;;;6.55;;
20462;SDS011;10390;53.566;9.980;2023-07-13T13:10:54;7.38;;;6.65;;
20462;SDS011;10390;53.566;9.980;2023-07-13T13:13:20;7.72;;;6.35;;
20462;SDS011;10390;53.566;9.980;2023-07-13T13:15:45;7.63;;;6.60;;
20462;SDS011;10390;53.566;9.980;2023-07-13T13:18:17;7.60;;;6.80;;
20462;SDS011;10390;53.566;9.980;2023-07-13T13:20:44;8.52;;;6.80;;
20462;SDS011;10390;53.566;9.980;2023-07-13T13:23:12;7.40;;;6.70;;
20462;SDS011;10390;53.566;9.980;2023-07-13T13:25:41;7.70;;;7.00;;
20462;SDS011;10390;53.566;9.980;2023-07-13T13:28:11;7.63;;;6.68;;
20462;SDS011;10390;53.566;9.980;2023-07-13T13:30:40;7.22;;;6.63;;
20462;SDS011;10390;53.566;9.980;2023-07-13T13:33:08;7.60;;;6.90;;
20462;SDS011;10390;53.566;9.980;2023-07-13T13:35:37;6.95;;;6.35;;
20462;SDS011;10390;53.566;9.980;2023-07-13T13:38:10;7.35;;;6.65;;
20462;SDS011;10390;53.566;9.980;2023-07-13T13:40:39;7.57;;;6.97;;
20462;SDS011;10390;53.566;9.980;2023-07-13T13:43:13;7.43;;;6.75;;
20462;SDS011;10390;53.566;9.980;2023-07-13T13:45:42;7.70;;;6.90;;
20462;SDS011;10390;53.566;9.980;2023-07-13T13:48:18;7.78;;;6.97;;
20462;SDS011;10390;53.566;9.980;2023-07-13T13:50:56;8.07;;;7.28;;
20462;SDS011;10390;53.566;9.980;2023-07-13T13:53:22;7.75;;;6.95;;
20462;SDS011;10390;53.566;9.980;2023-07-13T13:55:50;8.13;;;6.88;;
20462;SDS011;10390;53.566;9.980;2023-07-13T13:58:17;7.50;;;6.80;;
20462;SDS011;10390;53.566;9.980;2023-07-13T14:00:43;7.75;;;7.05;;
20462;SDS011;10390;53.566;9.980;2023-07-13T14:03:14;8.65;;;7.78;;
20462;SDS011;10390;53.566;9.980;2023-07-13T14:05:42;8.95;;;8.15;;
20462;SDS011;10390;53.566;9.980;2023-07-13T14:08:12;9.48;;;8.50;;
20462;SDS011;10390;53.566;9.980;2023-07-13T14:10:39;8.32;;;7.53;;
20462;SDS011;10390;53.566;9.980;2023-07-13T14:13:07;8.45;;;7.65;;
20462;SDS011;10390;53.566;9.980;2023-07-13T14:15:43;8.35;;;7.57;;
20462;SDS011;10390;53.566;9.980;2023-07-13T14:18:09;8.23;;;7.45;;
20462;SDS011;10390;53.566;9.980;2023-07-13T14:20:35;7.63;;;6.88;;
20462;SDS011;10390;53.566;9.980;2023-07-13T14:23:01;7.78;;;6.90;;
20462;SDS011;10390;53.566;9.980;2023-07-13T14:25:26;8.15;;;7.35;;
20462;SDS011;10390;53.566;9.980;2023-07-13T14:27:53;7.63;;;6.60;;
20462;SDS011;10390;53.566;9.980;2023-07-13T14:30:24;8.07;;;7.32;;
20462;SDS011;10390;53.566;9.980;2023-07-13T14:32:50;7.80;;;7.10;;
20462;SDS011;10390;53.566;9.980;2023-07-13T14:35:20;8.27;;;7.40;;
20462;SDS011;10390;53.566;9.980;2023-07-13T14:37:48;8.20;;;7.40;;
20462;SDS011;10390;53.566;9.980;2023-07-13T14:40:15;7.90;;;7.13;;
20462;SDS011;10390;53.566;9.980;2023-07-13T14:42:42;8.70;;;7.80;;
20462;SDS011;10390;53.566;9.980;2023-07-13T14:45:14;8.25;;;7.45;;
20462;SDS011;10390;53.566;9.980;2023-07-13T14:47:41;7.63;;;6.93;;
20462;SDS011;10390;53.566;9.980;2023-07-13T14:50:30;7.90;;;7.20;;
20462;SDS011;10390;53.566;9.980;2023-07-13T14:52:57;7.68;;;6.93;;
20462;SDS011;10390;53.566;9.980;2023-07-13T14:55:23;8.27;;;6.95;;
20462;SDS011;10390;53.566;9.980;2023-07-13T14:57:51;7.75;;;6.95;;
20462;SDS011;10390;53.566;9.980;2023-07-13T15:00:18;7.30;;;6.60;;
20462;SDS011;10390;53.566;9.980;2023-07-13T15:02:48;7.13;;;6.53;;
20462;SDS011;10390;53.566;9.980;2023-07-13T15:05:19;7.53;;;6.78;;
20462;SDS011;10390;53.566;9.980;2023-07-13T15:07:48;7.93;;;6.80;;
20462;SDS011;10390;53.566;9.980;2023-07-13T15:12:40;7.90;;;6.93;;
20462;SDS011;10390;53.566;9.980;2023-07-13T15:15:05;9.90;;;7.65;;
20462;SDS011;10390;53.566;9.980;2023-07-13T15:17:33;7.05;;;6.35;;
20462;SDS011;10390;53.566;9.980;2023-07-13T15:22:57;7.10;;;6.40;;
20462;SDS011;10390;53.566;9.980;2023-07-13T15:25:25;7.30;;;6.60;;
20462;SDS011;10390;53.566;9.980;2023-07-13T15:27:53;7.05;;;5.93;;
20462;SDS011;10390;53.566;9.980;2023-07-13T15:30:20;8.07;;;5.57;;
20462;SDS011;10390;53.566;9.980;2023-07-13T15:32:46;6.53;;;5.90;;
20462;SDS011;10390;53.566;9.980;2023-07-13T15:35:17;7.05;;;5.90;;
20462;SDS011;10390;53.566;9.980;2023-07-13T15:37:44;6.95;;;5.85;;
20462;SDS011;10390;53.566;9.980;2023-07-13T15:40:11;6.90;;;6.00;;
20462;SDS011;10390;53.566;9.980;2023-07-13T15:42:38;6.85;;;6.18;;
20462;SDS011;10390;53.566;9.980;2023-07-13T15:45:14;6.82;;;6.13;;
20462;SDS011;10390;53.566;9.980;2023-07-13T15:47:40;6.22;;;5.63;;